Aérodrome :
LOGIN :

S'inscrire | Disclaimer

   EN    FR    IT 

 










Légende :    VFR   VFR Marginal   IFR   IFR Intensif   IFR Très Intensif
Visi : 
Plafond : 
>= 8 km
>= 3000ft
5 à 8 km
1000 à 3000 ft
1500m à 5 km
500 à 1000 ft
800 à 1500m
200 à 500 ft
< 800m
< 200 ft
Symboles :   Orages  Brouillard  Fortes neiges  Fortes précipitations  Vent > 20 kt
SIGMETs :   Divers  Orages  Givrage  Turbulence  Onde Orograph.  Cendres Volcan.






- Altitude de l'aérodrome : 529 ft
- Code IATA : CHR


LFLX - Chateauroux

DERNIER METAR :
  • 041530Z AUTO 24008KT 210V270 9999 ///TCU 23/17 Q1010 TEMPO 2000 TSRA BKN009 BKN015CB

METARs EXPIRÉS :
  • 041500Z AUTO 24008KT 9999 FEW048/// BKN076/// OVC100/// ///CB 21/17 Q1011 TEMPO 2000 TSRA BKN009 BKN015CB
  • 041430Z AUTO 28006KT 200V330 9999 FEW016/// BKN033/// BKN041/// ///CB 19/16 Q1011 TEMPO 2000 TSRA BKN009 BKN015CB
  • 041400Z AUTO 23010KT 9999 RA SCT022/// BKN027/// BKN034/// ///CB 20/17 Q1011 TEMPO 2000 TSRA BKN009 BKN015CB
  • 041330Z AUTO 21009KT 170V230 9999 BKN016/// BKN025/// BKN030/// ///CB 22/17 Q1011 TEMPO 2000 TSRA BKN009 BKN015CB
  • 041300Z AUTO 22011KT 9999 FEW010/// BKN016/// BKN025/// ///TCU 21/17 Q1011 TEMPO 2000 TSRA BKN009 BKN015CB

TAF TAF LFLX
Valide du 04 à 12h jusqu'au 05 à 18h UTC


041100Z 0412/0518 20006KT 9999 BKN020
TEMPO 0412/0419 3500 SHRA BKN012 FEW015CB SCT020TCU
PROB40
TEMPO 0412/0418 2000 TSRA BKN009 BKN015CB
TEMPO 0419/0509 BKN004
PROB40
TEMPO 0422/0508 2000 BR BKN002
PROB30
TEMPO 0500/0505 0300 FG VV///
TEMPO 0509/0510 BKN012
TEMPO 0512/0518 21015G25KT -SHRA SCT040TCU



MET'MAP, la Météo Aéronautique d'un coup d'oeil ! - Copyright ORBIFLY Décembre 2007 - Disclaimer

ORBIFLY MET'MAP TEAM :

Programmation & Développement : Alexandra Zaïnal
Sur une idée originale de : Baudouin d'Aumeries
Assistance à la programmation : Marc-Olivier Méhu
Soutien technique & logistique : Manuel Goepfert

Contact : metmap@orbifly.com




SOURCES & CREDITS :

   NOAA